Time;durP1;ratioP1;P1;durP2;ratioP2;P2;SDS_P1;SDS_P2;PMS_P1;PMS_P2;Temp;Humidity;BMP_temperature;BMP_pressure;BME280_temperature;BME280_humidity;BME280_pressure;Samples;Min_cycle;Max_cycle;Signal;HPM_P1;HPM_P2
2022/03/09 00:01:17;;;;;;;2.50;1.10;;;;;;;-148.56;100.00;61375.16;4967206;28;21829;-31
2022/03/09 00:03:42;;;;;;;3.35;1.20;;;;;;;-148.56;100.00;61375.16;4966864;28;20038;-33
2022/03/09 00:06:07;;;;;;;3.50;1.27;;;;;;;-148.56;100.00;61375.16;4967271;28;20096;-29
2022/03/09 00:08:33;;;;;;;1.42;1.10;;;;;;;-148.56;100.00;61375.16;4963530;28;20076;-34
2022/03/09 00:10:58;;;;;;;1.38;1.20;;;;;;;-148.56;100.00;61375.16;4965384;28;20571;-28
2022/03/09 00:13:24;;;;;;;2.35;1.50;;;;;;;-148.56;100.00;61375.16;4962241;28;20436;-31
2022/03/09 00:15:49;;;;;;;1.25;1.00;;;;;;;-148.56;100.00;61375.16;4966903;28;20480;-31
2022/03/09 00:18:14;;;;;;;1.80;0.90;;;;;;;-148.56;100.00;61375.16;4966445;28;20030;-31
2022/03/09 00:20:40;;;;;;;1.38;1.23;;;;;;;-148.56;100.00;61375.16;4965043;28;20041;-29
2022/03/09 00:23:05;;;;;;;1.20;1.10;;;;;;;-148.56;100.00;61375.16;4967428;28;20080;-32
2022/03/09 00:25:31;;;;;;;1.50;1.25;;;;;;;-148.56;100.00;61375.16;4966037;28;20030;-28
2022/03/09 00:27:57;;;;;;;1.40;1.10;;;;;;;-148.56;100.00;61375.16;4966087;28;21297;-31
2022/03/09 00:30:23;;;;;;;2.03;1.00;;;;;;;-148.56;100.00;61375.16;4966037;28;20121;-31
2022/03/09 00:32:48;;;;;;;1.52;1.10;;;;;;;-148.56;100.00;61375.16;4967990;28;20023;-25
2022/03/09 00:35:14;;;;;;;1.27;1.10;;;;;;;-148.56;100.00;61375.16;4968047;28;20042;-27
2022/03/09 00:37:39;;;;;;;1.42;0.93;;;;;;;-148.56;100.00;61375.16;4966881;28;20022;-27
2022/03/09 00:40:06;;;;;;;1.90;1.20;;;;;;;-148.56;100.00;61375.16;4966288;28;20038;-31
2022/03/09 00:42:34;;;;;;;1.33;1.10;;;;;;;-148.56;100.00;61375.16;4964458;28;20034;-27
2022/03/09 00:45:00;;;;;;;1.52;1.10;;;;;;;-148.56;100.00;61375.16;4962856;28;20057;-30
2022/03/09 00:47:25;;;;;;;3.22;1.25;;;;;;;-148.56;100.00;61375.16;4967590;28;20521;-29
2022/03/09 00:49:50;;;;;;;1.55;1.20;;;;;;;-148.56;100.00;61375.16;4967341;28;20038;-30
2022/03/09 00:52:16;;;;;;;1.23;1.08;;;;;;;-148.56;100.00;61375.16;4968917;28;20034;-29
2022/03/09 00:54:41;;;;;;;0.93;0.88;;;;;;;-148.56;100.00;61375.16;4977183;28;20022;-30
2022/03/09 00:57:07;;;;;;;1.48;1.10;;;;;;;-148.56;100.00;61375.16;4980464;28;20057;-32
2022/03/09 00:59:32;;;;;;;1.45;1.25;;;;;;;-148.56;100.00;61375.16;4979719;28;20034;-29
2022/03/09 01:01:57;;;;;;;1.52;1.30;;;;;;;-148.56;100.00;61375.16;4976171;28;20957;-30
2022/03/09 01:04:23;;;;;;;1.80;1.25;;;;;;;-148.56;100.00;61375.16;4980218;28;20401;-29
2022/03/09 01:06:48;;;;;;;2.22;1.38;;;;;;;-148.56;100.00;61375.16;4977504;28;20093;-31
2022/03/09 01:09:14;;;;;;;1.23;1.00;;;;;;;-148.56;100.00;61375.16;4979537;28;20027;-30
2022/03/09 01:11:39;;;;;;;1.33;1.05;;;;;;;-148.56;100.00;61375.16;4976022;28;20041;-26
2022/03/09 01:14:05;;;;;;;1.95;1.10;;;;;;;-148.56;100.00;61375.16;4977847;28;20033;-30
2022/03/09 01:16:30;;;;;;;2.17;1.20;;;;;;;-148.56;100.00;61375.16;4977979;28;20038;-31
2022/03/09 01:18:56;;;;;;;1.75;1.05;;;;;;;-148.56;100.00;61375.16;4978526;28;20452;-29
2022/03/09 01:21:21;;;;;;;1.52;1.17;;;;;;;-148.56;100.00;61375.16;4977179;28;20044;-29
2022/03/09 01:23:46;;;;;;;1.92;1.00;;;;;;;-148.56;100.00;61375.16;4975570;28;20038;-29
2022/03/09 01:26:12;;;;;;;1.45;1.13;;;;;;;-148.56;100.00;61375.16;4966347;28;20037;-29
2022/03/09 01:28:37;;;;;;;1.55;1.08;;;;;;;-148.56;100.00;61375.16;4965922;28;20038;-30
2022/03/09 01:31:03;;;;;;;2.85;0.80;;;;;;;-148.56;100.00;61375.16;4974541;28;20032;-28
2022/03/09 01:33:28;;;;;;;1.15;1.00;;;;;;;-148.56;100.00;61375.16;4970322;28;20575;-34
2022/03/09 01:35:53;;;;;;;1.58;1.20;;;;;;;-148.56;100.00;61375.16;4977651;28;20034;-31
2022/03/09 01:38:19;;;;;;;2.55;1.00;;;;;;;-148.56;100.00;61375.16;4964531;28;20112;-26
2022/03/09 01:40:44;;;;;;;1.48;1.38;;;;;;;-148.56;100.00;61375.16;4963946;28;20042;-27
2022/03/09 01:43:10;;;;;;;3.03;0.82;;;;;;;-148.56;100.00;61375.16;4967881;28;20520;-26
2022/03/09 01:45:35;;;;;;;1.25;0.90;;;;;;;-148.56;100.00;61375.16;4962882;28;20030;-27
2022/03/09 01:48:01;;;;;;;1.17;1.08;;;;;;;-148.56;100.00;61375.16;4965718;28;20573;-27
2022/03/09 01:50:26;;;;;;;1.33;1.08;;;;;;;-148.56;100.00;61375.16;4965380;28;20034;-28
2022/03/09 01:52:52;;;;;;;1.05;0.93;;;;;;;-148.56;100.00;61375.16;4965898;28;20678;-28
2022/03/09 01:55:17;;;;;;;1.33;1.00;;;;;;;-148.56;100.00;61375.16;4961709;28;20269;-31
2022/03/09 01:57:42;;;;;;;1.50;0.90;;;;;;;-148.56;100.00;61375.16;4967877;28;20120;-30
2022/03/09 02:00:08;;;;;;;1.65;0.98;;;;;;;-148.56;100.00;61375.16;4964453;28;21023;-30
2022/03/09 02:02:34;;;;;;;1.27;1.10;;;;;;;-148.56;100.00;61375.16;4963236;28;20046;-27
2022/03/09 02:04:59;;;;;;;1.17;1.08;;;;;;;-148.56;100.00;61375.16;4965767;28;20069;-31
2022/03/09 02:10:09;;;;;;;0.98;0.80;;;;;;;-148.56;100.00;61375.16;4965430;28;20069;-27
2022/03/09 02:12:35;;;;;;;1.27;0.90;;;;;;;-148.56;100.00;61375.16;4964785;28;20034;-30
2022/03/09 02:15:01;;;;;;;2.10;1.40;;;;;;;-148.56;100.00;61375.16;4964013;28;20046;-28
2022/03/09 02:17:27;;;;;;;1.95;1.10;;;;;;;-148.56;100.00;61375.16;4962959;28;20037;-28
2022/03/09 02:19:52;;;;;;;1.48;1.00;;;;;;;-148.56;100.00;61375.16;4967306;28;20030;-29
2022/03/09 02:22:37;;;;;;;1.20;1.02;;;;;;;-148.56;100.00;61375.16;4965605;28;20658;-28
2022/03/09 02:25:04;;;;;;;1.40;1.10;;;;;;;-148.56;100.00;61375.16;4963443;28;20034;-25
2022/03/09 02:27:30;;;;;;;1.42;0.98;;;;;;;-148.56;100.00;61375.16;4964939;28;20023;-28
2022/03/09 02:29:55;;;;;;;1.33;0.90;;;;;;;-148.56;100.00;61375.16;4964548;28;20033;-30
2022/03/09 02:32:21;;;;;;;1.52;1.00;;;;;;;-148.56;100.00;61375.16;4962726;28;21109;-28
2022/03/09 02:34:47;;;;;;;0.90;0.80;;;;;;;-148.56;100.00;61375.16;4961086;28;20068;-30
2022/03/09 02:37:12;;;;;;;1.80;1.20;;;;;;;-148.56;100.00;61375.16;4966424;28;20113;-28
2022/03/09 02:39:37;;;;;;;0.82;0.70;;;;;;;-148.56;100.00;61375.16;4958053;28;20405;-29
2022/03/09 02:42:03;;;;;;;0.88;0.80;;;;;;;-148.56;100.00;61375.16;4963132;28;20022;-29
2022/03/09 02:44:29;;;;;;;1.30;0.80;;;;;;;-148.56;100.00;61375.16;4965717;28;20038;-31
2022/03/09 02:46:54;;;;;;;1.30;1.02;;;;;;;-148.56;100.00;61375.16;4964345;28;20033;-27
2022/03/09 02:49:19;;;;;;;1.90;1.08;;;;;;;-148.56;100.00;61375.16;4964248;28;20030;-30
2022/03/09 02:51:45;;;;;;;1.45;1.10;;;;;;;-148.56;100.00;61375.16;4964072;28;20030;-29
2022/03/09 02:54:10;;;;;;;1.35;1.02;;;;;;;-148.56;100.00;61375.16;4961357;28;20026;-31
2022/03/09 02:56:36;;;;;;;2.60;0.80;;;;;;;-148.56;100.00;61375.16;4963726;28;20042;-29
2022/03/09 02:59:01;;;;;;;1.00;0.80;;;;;;;-148.56;100.00;61375.16;4961895;28;20030;-26
2022/03/09 03:01:27;;;;;;;0.63;0.60;;;;;;;-148.56;100.00;61375.16;4964459;28;20042;-30
2022/03/09 03:03:52;;;;;;;1.10;1.00;;;;;;;-148.56;100.00;61375.16;4965379;28;20026;-30
2022/03/09 03:06:18;;;;;;;2.00;1.02;;;;;;;-148.56;100.00;61375.16;4970848;28;20037;-30
2022/03/09 03:08:43;;;;;;;1.20;1.05;;;;;;;-148.56;100.00;61375.16;4965675;28;20018;-28
2022/03/09 03:11:09;;;;;;;1.30;0.88;;;;;;;-148.56;100.00;61375.16;4962585;28;20042;-33
2022/03/09 03:13:36;;;;;;;1.45;0.90;;;;;;;-148.56;100.00;61375.16;4963208;28;20038;-31
2022/03/09 03:16:01;;;;;;;2.15;1.10;;;;;;;-148.56;100.00;61375.16;4971196;28;20137;-28
2022/03/09 03:18:27;;;;;;;2.35;0.80;;;;;;;-148.56;100.00;61375.16;4962755;28;21342;-30
2022/03/09 03:20:54;;;;;;;1.38;0.88;;;;;;;-148.56;100.00;61375.16;4963424;28;20062;-30
2022/03/09 03:23:24;;;;;;;1.73;1.00;;;;;;;-148.56;100.00;61375.16;4966072;28;20925;-27
2022/03/09 03:25:52;;;;;;;1.30;1.08;;;;;;;-148.56;100.00;61375.16;4963606;28;20956;-30
2022/03/09 03:28:18;;;;;;;1.45;0.95;;;;;;;-148.56;100.00;61375.16;4967455;28;20076;-28
2022/03/09 03:30:43;;;;;;;1.48;1.08;;;;;;;-148.56;100.00;61375.16;4970793;28;20077;-29
2022/03/09 03:33:09;;;;;;;1.40;0.98;;;;;;;-148.56;100.00;61375.16;4979274;28;20026;-28
2022/03/09 03:35:34;;;;;;;1.20;0.77;;;;;;;-148.56;100.00;61375.16;4970629;28;20035;-28
2022/03/09 03:38:00;;;;;;;1.23;0.90;;;;;;;-148.56;100.00;61375.16;4966009;28;20106;-31
2022/03/09 03:40:25;;;;;;;1.48;1.00;;;;;;;-148.56;100.00;61375.16;4967500;28;20463;-31
2022/03/09 03:42:50;;;;;;;1.20;0.93;;;;;;;-148.56;100.00;61375.16;4966047;28;20548;-29
2022/03/09 03:45:16;;;;;;;1.15;0.95;;;;;;;-148.56;100.00;61375.16;4967631;28;20522;-33
2022/03/09 03:47:41;;;;;;;1.52;0.98;;;;;;;-148.56;100.00;61375.16;4969455;28;20148;-31
2022/03/09 03:50:07;;;;;;;1.45;1.00;;;;;;;-148.56;100.00;61375.16;4968011;28;20089;-28
2022/03/09 03:52:32;;;;;;;1.38;0.70;;;;;;;-148.56;100.00;61375.16;4966649;28;20100;-28
2022/03/09 03:54:58;;;;;;;1.13;0.75;;;;;;;-148.56;100.00;61375.16;4967533;28;20124;-29
2022/03/09 03:57:23;;;;;;;1.40;1.20;;;;;;;-148.56;100.00;61375.16;4969249;28;20910;-27
2022/03/09 03:59:48;;;;;;;4.80;2.58;;;;;;;-148.56;100.00;61375.16;4965750;28;20045;-28
2022/03/09 04:02:14;;;;;;;2.88;1.42;;;;;;;-148.56;100.00;61375.16;4968167;28;20640;-25
2022/03/09 04:04:39;;;;;;;1.77;1.27;;;;;;;-148.56;100.00;61375.16;4965576;28;20034;-27
2022/03/09 04:07:05;;;;;;;1.92;1.17;;;;;;;-148.56;100.00;61375.16;4969586;28;20030;-28
2022/03/09 04:09:30;;;;;;;1.83;1.00;;;;;;;-148.56;100.00;61375.16;4967394;28;20026;-29
2022/03/09 04:11:55;;;;;;;1.52;0.98;;;;;;;-148.56;100.00;61375.16;4964740;28;20026;-29
2022/03/09 04:14:22;;;;;;;3.83;1.13;;;;;;;-148.56;100.00;61375.16;4976916;28;20045;-29
2022/03/09 04:16:50;;;;;;;1.33;1.10;;;;;;;-148.56;100.00;61375.16;4966262;28;20428;-28
2022/03/09 04:19:16;;;;;;;3.30;1.40;;;;;;;-148.56;100.00;61375.16;4967830;28;20042;-26
2022/03/09 04:21:42;;;;;;;1.30;0.80;;;;;;;-148.56;100.00;61375.16;4967142;28;20041;-30
2022/03/09 04:24:07;;;;;;;1.55;1.35;;;;;;;-148.56;100.00;61375.16;4967356;28;20034;-31
2022/03/09 04:26:32;;;;;;;2.00;0.80;;;;;;;-148.56;100.00;61375.16;4969719;28;20030;-30
2022/03/09 04:29:01;;;;;;;2.97;1.20;;;;;;;-148.56;100.00;61375.16;4965093;28;20060;-29
2022/03/09 04:31:26;;;;;;;2.78;1.08;;;;;;;-148.56;100.00;61375.16;4965707;28;20030;-31
2022/03/09 04:33:51;;;;;;;1.42;1.10;;;;;;;-148.56;100.00;61375.16;4969146;28;21037;-30
2022/03/09 04:36:17;;;;;;;1.00;0.90;;;;;;;-148.56;100.00;61375.16;4965697;28;20030;-30
2022/03/09 04:38:42;;;;;;;2.85;1.10;;;;;;;-148.56;100.00;61375.16;4969829;28;20033;-29
2022/03/09 04:41:08;;;;;;;2.08;1.00;;;;;;;-148.56;100.00;61375.16;4965854;28;20033;-29
2022/03/09 04:43:33;;;;;;;1.30;1.00;;;;;;;-148.56;100.00;61375.16;4966694;28;20047;-29
2022/03/09 04:45:59;;;;;;;1.10;0.90;;;;;;;-148.56;100.00;61375.16;4965128;28;20048;-30
2022/03/09 04:48:24;;;;;;;1.55;1.08;;;;;;;-148.56;100.00;61375.16;4966481;28;20685;-29
2022/03/09 04:50:49;;;;;;;1.10;0.90;;;;;;;-148.56;100.00;61375.16;4970820;28;20640;-32
2022/03/09 04:53:15;;;;;;;1.15;1.00;;;;;;;-148.56;100.00;61375.16;4980043;28;20034;-32
2022/03/09 04:55:40;;;;;;;3.03;1.13;;;;;;;-148.56;100.00;61375.16;4978952;28;20041;-31
2022/03/09 04:58:06;;;;;;;1.00;0.82;;;;;;;-148.56;100.00;61375.16;4978266;28;20034;-27
2022/03/09 05:00:31;;;;;;;0.98;0.88;;;;;;;-148.56;100.00;61375.16;4977710;28;20034;-29
2022/03/09 05:02:56;;;;;;;1.00;0.90;;;;;;;-148.56;100.00;61375.16;4975390;28;20026;-30
2022/03/09 05:05:22;;;;;;;1.17;0.80;;;;;;;-148.56;100.00;61375.16;4974131;28;20038;-29
2022/03/09 05:07:47;;;;;;;1.15;0.80;;;;;;;-148.56;100.00;61375.16;4975408;28;20084;-30
2022/03/09 05:10:13;;;;;;;1.55;0.90;;;;;;;-148.56;100.00;61375.16;4977633;28;20022;-29
2022/03/09 05:12:38;;;;;;;1.27;0.80;;;;;;;-148.56;100.00;61375.16;4978447;28;20433;-33
2022/03/09 05:15:04;;;;;;;0.77;0.73;;;;;;;-148.56;100.00;61375.16;4974405;28;20592;-26
2022/03/09 05:17:30;;;;;;;1.02;0.90;;;;;;;-148.56;100.00;61375.16;4976909;28;20677;-29
2022/03/09 05:19:55;;;;;;;1.67;0.80;;;;;;;-148.56;100.00;61375.16;4975577;28;20038;-28
2022/03/09 05:22:20;;;;;;;1.52;0.77;;;;;;;-148.56;100.00;61375.16;4971771;28;20042;-30
2022/03/09 05:24:46;;;;;;;1.92;1.13;;;;;;;-148.56;100.00;61375.16;4966731;28;20085;-27
2022/03/09 05:27:11;;;;;;;0.98;0.88;;;;;;;-148.56;100.00;61375.16;4966373;28;20440;-28
2022/03/09 05:29:37;;;;;;;1.00;0.90;;;;;;;-148.56;100.00;61375.16;4966119;28;20026;-29
2022/03/09 05:32:03;;;;;;;1.17;0.93;;;;;;;-148.56;100.00;61375.16;4973707;28;20022;-28
2022/03/09 05:34:28;;;;;;;1.10;0.82;;;;;;;-148.56;100.00;61375.16;4976786;28;20664;-34
2022/03/09 05:36:54;;;;;;;2.63;0.85;;;;;;;-148.56;100.00;61375.16;4974367;28;20026;-28
2022/03/09 05:39:19;;;;;;;1.40;0.93;;;;;;;-148.56;100.00;61375.16;4964570;28;20029;-31
2022/03/09 05:41:45;;;;;;;1.55;0.77;;;;;;;-148.56;100.00;61375.16;4964644;28;20042;-30
2022/03/09 05:44:10;;;;;;;0.55;0.55;;;;;;;-148.56;100.00;61375.16;4967123;28;20027;-29
2022/03/09 05:46:36;;;;;;;1.52;0.73;;;;;;;-148.56;100.00;61375.16;4962262;28;20045;-29
2022/03/09 05:49:01;;;;;;;0.70;0.70;;;;;;;-148.56;100.00;61375.16;4964664;28;20077;-33
2022/03/09 05:51:27;;;;;;;1.40;0.82;;;;;;;-148.56;100.00;61375.16;4966709;28;20125;-29
2022/03/09 05:53:52;;;;;;;1.52;0.93;;;;;;;-148.56;100.00;61375.16;4965329;28;20077;-33
2022/03/09 05:56:18;;;;;;;1.20;0.82;;;;;;;-148.56;100.00;61375.16;4966728;28;20033;-29
2022/03/09 05:58:43;;;;;;;1.63;0.85;;;;;;;-148.56;100.00;61375.16;4967372;28;20027;-30
2022/03/09 06:01:08;;;;;;;0.75;0.75;;;;;;;-148.56;100.00;61375.16;4964543;28;20030;-27
2022/03/09 06:03:34;;;;;;;1.10;0.82;;;;;;;-148.56;100.00;61375.16;4965139;28;21265;-28
2022/03/09 06:05:59;;;;;;;1.30;1.00;;;;;;;-148.56;100.00;61375.16;4969102;28;20780;-28
2022/03/09 06:08:25;;;;;;;1.02;0.93;;;;;;;-148.56;100.00;61375.16;4963401;28;20077;-29
2022/03/09 06:10:51;;;;;;;1.08;0.85;;;;;;;-148.56;100.00;61375.16;4963378;28;20022;-33
2022/03/09 06:13:17;;;;;;;0.95;0.80;;;;;;;-148.56;100.00;61375.16;4965546;28;20117;-25
2022/03/09 06:15:42;;;;;;;1.15;0.93;;;;;;;-148.56;100.00;61375.16;4967924;28;20052;-31
2022/03/09 06:18:08;;;;;;;3.70;1.10;;;;;;;-148.56;100.00;61375.16;4962542;28;20014;-31
2022/03/09 06:20:33;;;;;;;2.53;0.93;;;;;;;-148.56;100.00;61375.16;4966273;28;20124;-29
2022/03/09 06:22:58;;;;;;;1.00;0.70;;;;;;;-148.56;100.00;61375.16;4966831;28;20030;-28
2022/03/09 06:25:24;;;;;;;2.28;0.82;;;;;;;-148.56;100.00;61375.16;4950403;28;20038;-32
2022/03/09 06:27:51;;;;;;;1.95;0.90;;;;;;;-148.56;100.00;61375.16;4964014;28;21709;-29
2022/03/09 06:30:17;;;;;;;2.20;1.05;;;;;;;-148.56;100.00;61375.16;4962215;28;20026;-31
2022/03/09 06:32:43;;;;;;;1.02;0.80;;;;;;;-148.56;100.00;61375.16;4964025;28;20136;-29
2022/03/09 06:35:09;;;;;;;3.85;0.80;;;;;;;-148.56;100.00;61375.16;4964927;28;20045;-30
2022/03/09 06:37:34;;;;;;;0.80;0.57;;;;;;;-148.56;100.00;61375.16;4966463;28;20026;-33
2022/03/09 06:40:00;;;;;;;1.73;0.93;;;;;;;-148.56;100.00;61375.16;4974895;28;20038;-27
2022/03/09 06:42:26;;;;;;;3.25;1.33;;;;;;;-148.56;100.00;61375.16;4961133;28;20026;-30
2022/03/09 06:44:51;;;;;;;1.83;0.85;;;;;;;-148.56;100.00;61375.16;4965179;28;20038;-27
2022/03/09 06:47:17;;;;;;;1.15;0.73;;;;;;;-148.56;100.00;61375.16;4964535;28;20090;-26
2022/03/09 06:49:42;;;;;;;2.17;0.82;;;;;;;-148.56;100.00;61375.16;4966179;28;20035;-30
2022/03/09 06:52:08;;;;;;;1.45;0.90;;;;;;;-148.56;100.00;61375.16;4965855;28;20142;-28
2022/03/09 06:54:33;;;;;;;0.82;0.73;;;;;;;-148.56;100.00;61375.16;4962696;28;20034;-28
2022/03/09 06:56:59;;;;;;;1.63;0.80;;;;;;;-148.56;100.00;61375.16;4967032;28;20678;-29
2022/03/09 06:59:24;;;;;;;1.98;1.10;;;;;;;-148.56;100.00;61375.16;4967224;28;20033;-29
2022/03/09 07:01:49;;;;;;;2.08;1.00;;;;;;;-148.56;100.00;61375.16;4964371;28;20031;-29
2022/03/09 07:04:15;;;;;;;1.20;0.93;;;;;;;-148.56;100.00;61375.16;4973632;28;20038;-28
2022/03/09 07:06:40;;;;;;;6.97;2.55;;;;;;;-148.56;100.00;61375.16;4972343;28;20030;-31
2022/03/09 07:09:06;;;;;;;11.55;3.40;;;;;;;-148.56;100.00;61375.16;4968444;28;20505;-31
2022/03/09 07:11:31;;;;;;;13.88;3.88;;;;;;;-148.56;100.00;61375.16;4964963;28;20066;-30
2022/03/09 07:13:57;;;;;;;13.73;4.25;;;;;;;-148.56;100.00;61375.16;4967055;28;20037;-32
2022/03/09 07:16:22;;;;;;;28.35;5.10;;;;;;;-148.56;100.00;61375.16;4963069;28;20504;-29
2022/03/09 07:18:47;;;;;;;17.02;4.75;;;;;;;-148.56;100.00;61375.16;4965277;28;20030;-29
2022/03/09 07:21:13;;;;;;;16.20;4.28;;;;;;;-148.56;100.00;61375.16;4969916;28;20030;-30
2022/03/09 07:23:39;;;;;;;11.35;4.07;;;;;;;-148.56;100.00;61375.16;4969427;28;20030;-27
2022/03/09 07:26:04;;;;;;;9.30;3.40;;;;;;;-148.56;100.00;61375.16;4969347;28;20026;-28
2022/03/09 07:28:30;;;;;;;11.48;3.92;;;;;;;-148.56;100.00;61375.16;4967857;28;20029;-28
2022/03/09 07:30:55;;;;;;;10.02;3.83;;;;;;;-148.56;100.00;61375.16;4975033;28;20117;-31
2022/03/09 07:33:21;;;;;;;10.80;3.88;;;;;;;-148.56;100.00;61375.16;4961863;28;20476;-32
2022/03/09 07:35:46;;;;;;;9.25;3.47;;;;;;;-148.56;100.00;61375.16;4964973;28;20029;-30
2022/03/09 07:38:13;;;;;;;10.75;3.20;;;;;;;-148.56;100.00;61375.16;4965740;28;20599;-32
2022/03/09 07:40:38;;;;;;;13.68;4.28;;;;;;;-148.56;100.00;61375.16;4967710;28;20112;-30
2022/03/09 07:43:03;;;;;;;6.80;3.17;;;;;;;-148.56;100.00;61375.16;4965360;28;20084;-33
2022/03/09 07:45:29;;;;;;;6.93;3.50;;;;;;;-148.56;100.00;61375.16;4968130;28;20092;-28
2022/03/09 07:47:54;;;;;;;8.82;3.55;;;;;;;-148.56;100.00;61375.16;4964381;28;20030;-32
2022/03/09 07:50:20;;;;;;;11.18;3.55;;;;;;;-148.56;100.00;61375.16;4966080;28;20791;-27
2022/03/09 07:52:45;;;;;;;9.65;3.20;;;;;;;-148.56;100.00;61375.16;4971306;28;20041;-28
2022/03/09 07:55:11;;;;;;;8.55;3.15;;;;;;;-148.56;100.00;61375.16;4962480;28;20057;-32
2022/03/09 07:57:36;;;;;;;7.72;3.20;;;;;;;-148.56;100.00;61375.16;4964210;28;20046;-28
2022/03/09 08:00:03;;;;;;;11.68;3.33;;;;;;;-148.56;100.00;61375.16;4961956;28;20042;-30
2022/03/09 08:02:28;;;;;;;6.28;3.17;;;;;;;-148.56;100.00;61375.16;4963968;28;20080;-28
2022/03/09 08:04:54;;;;;;;6.93;3.10;;;;;;;-148.56;100.00;61375.16;4968813;28;20034;-25
2022/03/09 08:07:19;;;;;;;8.70;3.40;;;;;;;-148.56;100.00;61375.16;4966894;28;20035;-28
2022/03/09 08:09:44;;;;;;;8.82;3.60;;;;;;;-148.56;100.00;61375.16;4966285;28;20037;-30
2022/03/09 08:12:11;;;;;;;6.95;3.72;;;;;;;-148.56;100.00;61375.16;4964145;28;20038;-30
2022/03/09 08:14:37;;;;;;;9.68;3.60;;;;;;;-148.56;100.00;61375.16;4966786;28;20031;-29
2022/03/09 08:17:02;;;;;;;6.47;3.60;;;;;;;-148.56;100.00;61375.16;4967003;28;20029;-30
2022/03/09 08:19:28;;;;;;;8.73;3.90;;;;;;;-148.56;100.00;61375.16;4968744;28;20073;-29
2022/03/09 08:21:54;;;;;;;6.88;3.30;;;;;;;-148.56;100.00;61375.16;4966058;28;20045;-30
2022/03/09 08:24:19;;;;;;;7.30;3.40;;;;;;;-148.56;100.00;61375.16;4976729;28;20045;-30
2022/03/09 08:26:45;;;;;;;5.47;2.75;;;;;;;-148.56;100.00;61375.16;4977326;28;20791;-31
2022/03/09 08:29:11;;;;;;;6.70;3.20;;;;;;;-148.56;100.00;61375.16;4978654;28;20076;-29
2022/03/09 08:31:36;;;;;;;6.88;2.60;;;;;;;-148.56;100.00;61375.16;4979115;28;20110;-33
2022/03/09 08:34:01;;;;;;;6.20;2.88;;;;;;;-148.56;100.00;61375.16;4979419;28;20041;-29
2022/03/09 08:36:27;;;;;;;5.40;2.80;;;;;;;-148.56;100.00;61375.16;4981333;28;20037;-28
2022/03/09 08:38:53;;;;;;;7.60;3.13;;;;;;;-148.56;100.00;61375.16;4967055;28;20030;-25
2022/03/09 08:41:19;;;;;;;5.50;2.80;;;;;;;-148.56;100.00;61375.16;4954240;28;20038;-30
2022/03/09 08:43:44;;;;;;;5.53;2.55;;;;;;;-148.56;100.00;61375.16;4956624;28;20061;-30
2022/03/09 08:46:11;;;;;;;6.75;2.85;;;;;;;-148.56;100.00;61375.16;4956405;28;20034;-28
2022/03/09 08:48:38;;;;;;;7.80;2.67;;;;;;;-148.56;100.00;61375.16;4956967;28;20022;-27
2022/03/09 08:51:04;;;;;;;5.13;2.35;;;;;;;-148.56;100.00;61375.16;4959809;28;20113;-28
2022/03/09 08:53:31;;;;;;;7.40;2.60;;;;;;;-148.56;100.00;61375.16;4958213;28;20042;-29
2022/03/09 08:55:56;;;;;;;5.72;2.45;;;;;;;-148.56;100.00;61375.16;4949467;28;20030;-32
2022/03/09 08:58:22;;;;;;;5.22;2.38;;;;;;;-148.56;100.00;61375.16;4964382;28;20810;-31
2022/03/09 09:00:47;;;;;;;5.03;3.53;;;;;;;-148.56;100.00;61375.16;4964759;28;20409;-30
2022/03/09 09:03:13;;;;;;;3.88;2.33;;;;;;;-148.56;100.00;61375.16;4962736;28;20050;-29
2022/03/09 09:05:38;;;;;;;5.88;2.80;;;;;;;-148.56;100.00;61375.16;4966874;28;20047;-29
2022/03/09 09:08:04;;;;;;;5.85;2.58;;;;;;;-148.56;100.00;61375.16;4965960;28;20033;-31
2022/03/09 09:10:31;;;;;;;5.20;2.70;;;;;;;-148.56;100.00;61375.16;4964681;28;20042;-30
2022/03/09 09:12:57;;;;;;;5.35;2.40;;;;;;;-148.56;100.00;61375.16;4962403;28;20601;-28
2022/03/09 09:15:24;;;;;;;4.47;2.40;;;;;;;-148.56;100.00;61375.16;4965490;28;20026;-28
2022/03/09 09:17:56;;;;;;;5.60;2.35;;;;;;;-148.56;100.00;61375.16;4965203;28;20030;-30
2022/03/09 09:20:25;;;;;;;4.93;2.55;;;;;;;-148.56;100.00;61375.16;4966697;28;20030;-28
2022/03/09 09:22:51;;;;;;;3.72;2.22;;;;;;;-148.56;100.00;61375.16;4963948;28;20030;-26
2022/03/09 09:25:17;;;;;;;3.40;2.10;;;;;;;-148.56;100.00;61375.16;4959861;28;20800;-31
2022/03/09 09:27:42;;;;;;;4.88;2.47;;;;;;;-148.56;100.00;61375.16;4964828;28;20038;-27
2022/03/09 09:30:08;;;;;;;6.30;2.53;;;;;;;-148.56;100.00;61375.16;4976368;28;20041;-31
2022/03/09 09:32:33;;;;;;;5.15;2.42;;;;;;;-148.56;100.00;61375.16;4971616;28;20703;-29
2022/03/09 09:34:59;;;;;;;4.75;2.38;;;;;;;-148.56;100.00;61375.16;4971463;28;20097;-29
2022/03/09 09:37:24;;;;;;;4.15;2.42;;;;;;;-148.56;100.00;61375.16;4963426;28;20033;-27
2022/03/09 09:39:50;;;;;;;16.63;7.93;;;;;;;-148.56;100.00;61375.16;4962202;28;20488;-30
2022/03/09 09:42:15;;;;;;;17.65;9.57;;;;;;;-148.56;100.00;61375.16;4962574;28;20061;-32
2022/03/09 09:44:42;;;;;;;12.98;9.40;;;;;;;-148.56;100.00;61375.16;4962868;28;20082;-31
2022/03/09 09:47:08;;;;;;;17.85;9.20;;;;;;;-148.56;100.00;61375.16;4944012;28;20065;-29
2022/03/09 09:49:37;;;;;;;11.32;8.20;;;;;;;-148.56;100.00;61375.16;4961605;28;20516;-30
2022/03/09 09:52:03;;;;;;;15.30;7.70;;;;;;;-148.56;100.00;61375.16;4963093;28;20026;-26
2022/03/09 09:54:28;;;;;;;13.52;6.80;;;;;;;-148.56;100.00;61375.16;4951381;28;20034;-30
2022/03/09 09:56:53;;;;;;;11.90;6.25;;;;;;;-148.56;100.00;61375.16;4931678;28;20038;-31
2022/03/09 09:59:19;;;;;;;12.68;6.30;;;;;;;-148.56;100.00;61375.16;4924916;28;20661;-27
2022/03/09 10:01:44;;;;;;;9.75;5.68;;;;;;;-148.56;100.00;61375.16;4924394;28;20043;-30
2022/03/09 10:04:10;;;;;;;11.77;5.93;;;;;;;-148.56;100.00;61375.16;4926195;28;20039;-33
2022/03/09 10:06:37;;;;;;;12.65;6.00;;;;;;;-148.56;100.00;61375.16;4925306;28;20042;-34
2022/03/09 10:09:06;;;;;;;8.40;5.20;;;;;;;-148.56;100.00;61375.16;4922621;28;20081;-32
2022/03/09 10:12:05;;;;;;;9.32;5.32;;;;;;;-148.56;100.00;61375.16;4920208;28;20038;-30
2022/03/09 10:14:49;;;;;;;10.35;4.80;;;;;;;-148.56;100.00;61375.16;4921506;28;21893;-32
2022/03/09 10:17:18;;;;;;;8.63;4.53;;;;;;;-148.56;100.00;61375.16;4927656;28;20034;-31
2022/03/09 10:19:50;;;;;;;7.75;4.65;;;;;;;-148.56;100.00;61375.16;4923220;28;20140;-32
2022/03/09 10:22:24;;;;;;;6.38;4.50;;;;;;;-148.56;100.00;61375.16;4924303;28;20749;-31
2022/03/09 10:24:50;;;;;;;7.40;3.72;;;;;;;-148.56;100.00;61375.16;4965548;28;20042;-30
2022/03/09 10:27:42;;;;;;;6.07;3.95;;;;;;;-148.56;100.00;61375.16;4963653;28;20431;-31
2022/03/09 10:30:17;;;;;;;7.53;3.75;;;;;;;-148.56;100.00;61375.16;4963117;28;20697;-30
2022/03/09 10:32:53;;;;;;;6.88;3.97;;;;;;;-148.56;100.00;61375.16;4927520;28;20038;-28
2022/03/09 10:35:40;;;;;;;11.93;3.78;;;;;;;-148.56;100.00;61375.16;4924949;28;20026;-31
2022/03/09 10:38:14;;;;;;;9.07;3.75;;;;;;;-148.56;100.00;61375.16;4927441;28;20125;-29
2022/03/09 10:40:44;;;;;;;9.77;3.58;;;;;;;-148.56;100.00;61375.16;4928838;28;20068;-28
2022/03/09 10:43:17;;;;;;;10.23;3.97;;;;;;;-148.56;100.00;61375.16;4925925;28;20149;-29
2022/03/09 10:46:05;;;;;;;9.40;3.63;;;;;;;-148.56;100.00;61375.16;4925876;28;20124;-26
2022/03/09 10:48:49;;;;;;;5.93;3.25;;;;;;;-148.56;100.00;61375.16;4919145;28;20100;-25
2022/03/09 10:51:34;;;;;;;5.82;3.38;;;;;;;-148.56;100.00;61375.16;4926514;28;20038;-26
2022/03/09 10:54:09;;;;;;;6.40;3.30;;;;;;;-148.56;100.00;61375.16;4927140;28;20098;-26
2022/03/09 10:56:35;;;;;;;5.75;2.90;;;;;;;-148.56;100.00;61375.16;4946710;28;20034;-30
2022/03/09 10:59:12;;;;;;;6.05;3.17;;;;;;;-148.56;100.00;61375.16;4966475;28;20033;-31
2022/03/09 11:01:37;;;;;;;5.60;3.10;;;;;;;-148.56;100.00;61375.16;4967182;28;20050;-34
2022/03/09 11:04:16;;;;;;;5.40;2.85;;;;;;;-148.56;100.00;61375.16;4966446;28;20034;-32
2022/03/09 11:06:46;;;;;;;8.02;3.17;;;;;;;-148.56;100.00;61375.16;4974227;28;20497;-28
2022/03/09 11:09:13;;;;;;;4.30;3.00;;;;;;;-148.56;100.00;61375.16;4966002;28;20037;-28